Time;durP1;ratioP1;P1;durP2;ratioP2;P2;SDS_P1;SDS_P2;PMS_P1;PMS_P2;Temp;Humidity;BMP_temperature;BMP_pressure;BME280_temperature;BME280_humidity;BME280_pressure;Samples;Min_cycle;Max_cycle;Signal;HPM_P1;HPM_P2
2022/05/24 00:02:07;;;;;;;0.90;0.50;;;14.20;99.90;13.70;99985.00;;;;5035687;28;20187;-64
2022/05/24 00:04:33;;;;;;;0.40;0.40;;;14.10;99.90;13.90;99987.00;;;;5036159;28;20248;-64
2022/05/24 00:07:00;;;;;;;0.40;0.40;;;14.10;99.90;13.90;99949.00;;;;5051154;28;20184;-64
2022/05/24 00:09:26;;;;;;;0.40;0.40;;;14.10;99.90;13.80;99969.00;;;;5051202;28;20180;-64
2022/05/24 00:11:53;;;;;;;0.60;0.60;;;14.10;99.90;14.10;99971.00;;;;5035716;28;20219;-64
2022/05/24 00:15:19;;;;;;;0.30;0.30;;;14.20;99.90;13.50;99963.00;;;;5051096;28;20192;-64
2022/05/24 00:17:06;;;;;;;0.30;0.30;;;14.00;99.90;13.40;99968.00;;;;5035332;28;20191;-64
2022/05/24 00:19:33;;;;;;;0.30;0.30;;;13.90;99.90;13.50;99965.00;;;;5035197;28;20240;-64
2022/05/24 00:21:59;;;;;;;0.40;0.40;;;13.90;99.90;13.60;99971.00;;;;5035671;28;20184;-64
2022/05/24 00:24:25;;;;;;;0.40;0.40;;;13.90;99.90;13.70;99970.00;;;;5050839;28;20180;-64
2022/05/24 00:26:51;;;;;;;0.30;0.30;;;13.90;99.90;13.10;99977.00;;;;5035468;28;20201;-64
2022/05/24 00:29:17;;;;;;;0.30;0.30;;;13.70;99.90;13.10;99962.00;;;;5035259;28;20215;-64
2022/05/24 00:31:43;;;;;;;0.40;0.40;;;13.60;99.90;13.20;99983.00;;;;5035091;28;20207;-64
2022/05/24 00:34:09;;;;;;;0.40;0.40;;;13.60;99.90;13.10;99987.00;;;;5035023;28;20267;-64
2022/05/24 00:36:35;;;;;;;0.40;0.40;;;13.60;99.90;13.00;99984.00;;;;5035437;28;20180;-64
2022/05/24 00:39:02;;;;;;;0.40;0.40;;;13.60;99.90;13.20;99972.00;;;;5035122;28;20176;-65
2022/05/24 00:41:42;;;;;;;0.40;0.40;;;13.50;99.90;13.30;99992.00;;;;5035339;28;20183;-64
2022/05/24 00:44:31;;;;;;;0.40;0.40;;;13.50;99.90;13.40;99940.00;;;;5050350;28;20643;-64
2022/05/24 00:47:06;;;;;;;0.40;0.40;;;13.70;99.90;13.90;99982.00;;;;5050735;28;20182;-64
2022/05/24 00:49:56;;;;;;;0.40;0.40;;;13.80;99.90;13.90;99944.00;;;;5034720;28;20258;-64
2022/05/24 00:52:46;;;;;;;0.40;0.40;;;13.90;99.90;13.00;99970.00;;;;5050088;28;20243;-64
2022/05/24 00:55:14;;;;;;;0.30;0.30;;;13.60;99.90;13.00;99978.00;;;;5033691;28;20219;-64
2022/05/24 00:57:52;;;;;;;0.40;0.40;;;13.40;99.90;13.00;99980.00;;;;5050246;28;20172;-64
2022/05/24 01:00:21;;;;;;;0.43;0.43;;;13.40;99.90;12.70;99978.00;;;;5034571;28;20194;-66
2022/05/24 01:02:48;;;;;;;0.40;0.40;;;13.20;99.90;12.70;99985.00;;;;5034506;28;20195;-64
2022/05/24 01:05:25;;;;;;;0.50;0.50;;;13.20;99.90;12.90;100004.00;;;;5034469;28;20630;-64
2022/05/24 01:07:51;;;;;;;0.40;0.40;;;13.30;99.90;13.40;100004.00;;;;5034677;28;20177;-64
2022/05/24 01:10:35;;;;;;;0.60;0.60;;;13.40;99.90;13.50;99962.00;;;;5034687;28;20249;-63
2022/05/24 01:13:15;;;;;;;1.43;1.17;;;13.50;99.90;12.70;100004.00;;;;5049818;28;20238;-64
2022/05/24 01:15:43;;;;;;;0.70;0.70;;;13.30;99.90;12.60;99993.00;;;;5049830;28;20174;-64
2022/05/24 01:18:11;;;;;;;0.40;0.40;;;13.10;99.90;12.50;100000.00;;;;5049370;28;20193;-64
2022/05/24 01:20:38;;;;;;;0.30;0.30;;;13.00;99.90;12.80;100005.00;;;;5049681;28;20204;-65
2022/05/24 01:23:42;;;;;;;0.40;0.40;;;13.10;99.90;12.50;100008.00;;;;5049695;28;20266;-64
2022/05/24 01:26:14;;;;;;;0.30;0.30;;;13.00;99.90;12.90;100007.00;;;;5033777;28;20276;-64
2022/05/24 01:28:58;;;;;;;0.40;0.40;;;13.10;99.90;12.30;99995.00;;;;5034270;28;20187;-64
2022/05/24 01:36:09;;;;;;;1.00;0.50;;;12.90;99.90;12.30;99985.00;;;;5049115;28;20214;-64
2022/05/24 01:36:57;;;;;;;0.30;0.30;;;12.70;99.90;12.40;99960.00;;;;5034077;28;20251;-65
2022/05/24 01:39:23;;;;;;;0.30;0.30;;;12.80;99.90;12.10;99961.00;;;;5034146;28;20184;-66
2022/05/24 01:41:51;;;;;;;1.43;1.43;;;12.70;99.90;11.90;99936.00;;;;5034217;28;20184;-66
2022/05/24 01:44:39;;;;;;;1.90;0.60;;;12.60;99.90;12.00;99986.00;;;;5033825;28;20211;-64
2022/05/24 01:47:05;;;;;;;0.40;0.40;;;12.50;99.90;12.30;99980.00;;;;5033300;28;20179;-64
2022/05/24 01:49:40;;;;;;;0.40;0.40;;;12.70;99.90;12.30;99988.00;;;;5034124;28;20185;-64
2022/05/24 01:52:33;;;;;;;1.23;1.13;;;12.70;99.90;12.90;99978.00;;;;5049005;28;20293;-64
2022/05/24 01:55:10;;;;;;;0.50;0.50;;;12.90;99.90;12.40;99979.00;;;;5048853;28;20556;-64
2022/05/24 01:57:44;;;;;;;1.23;1.23;;;12.80;99.90;11.90;99937.00;;;;5033984;28;20179;-64
2022/05/24 02:00:13;;;;;;;2.97;1.23;;;12.60;99.90;12.20;99977.00;;;;5048853;28;20179;-64
2022/05/24 02:02:39;;;;;;;1.90;1.40;;;12.60;99.90;12.20;99973.00;;;;5032171;28;20179;-64
2022/05/24 02:05:07;;;;;;;1.10;1.10;;;12.70;99.90;12.00;99945.00;;;;5048958;28;20194;-65
2022/05/24 02:07:33;;;;;;;1.20;0.67;;;12.60;99.90;12.00;99970.00;;;;5033350;28;20245;-64
2022/05/24 02:09:59;;;;;;;0.60;0.60;;;12.50;99.90;11.90;99991.00;;;;5048878;28;20186;-64
2022/05/24 02:12:44;;;;;;;0.57;0.57;;;12.60;99.90;11.90;99991.00;;;;5048905;28;20261;-66
2022/05/24 02:15:17;;;;;;;0.80;0.80;;;12.50;99.90;11.80;99987.00;;;;5048602;28;20196;-66
2022/05/24 02:18:07;;;;;;;0.80;0.80;;;12.50;99.90;11.90;99994.00;;;;5048663;28;20176;-64
2022/05/24 02:20:37;;;;;;;1.40;0.67;;;12.50;99.90;12.00;99948.00;;;;5048969;28;20173;-64
2022/05/24 02:23:04;;;;;;;0.47;0.47;;;12.60;99.90;12.10;99981.00;;;;5033442;28;20184;-64
2022/05/24 02:25:51;;;;;;;0.40;0.40;;;12.70;99.90;12.30;99945.00;;;;5048832;28;20651;-64
2022/05/24 02:28:27;;;;;;;2.60;1.27;;;12.70;99.90;12.10;99959.00;;;;5032316;28;20190;-64
2022/05/24 02:31:12;;;;;;;0.60;0.60;;;12.70;99.90;12.00;99957.00;;;;5032598;28;20175;-64
2022/05/24 02:33:38;;;;;;;1.43;0.97;;;12.60;99.90;12.40;99947.00;;;;5048864;28;20264;-66
2022/05/24 02:36:05;;;;;;;1.07;0.60;;;12.70;99.90;12.30;99966.00;;;;5033094;28;20500;-65
2022/05/24 02:38:32;;;;;;;3.80;1.93;;;12.80;99.90;12.50;99965.00;;;;5033213;28;20186;-64
2022/05/24 02:43:42;;;;;;;0.30;0.30;;;12.90;99.90;12.10;99980.00;;;;5046581;28;20233;-64
2022/05/24 02:46:09;;;;;;;15.80;1.67;;;12.70;99.90;12.00;99963.00;;;;5048336;28;20179;-65
2022/05/24 02:48:38;;;;;;;0.50;0.50;;;12.60;99.90;11.90;99983.00;;;;5033281;28;20179;-66
2022/05/24 02:51:13;;;;;;;3.00;2.70;;;12.50;99.90;12.00;99968.00;;;;5048455;28;20185;-64
2022/05/24 02:53:41;;;;;;;1.50;1.07;;;12.50;99.90;12.10;99999.00;;;;5033058;28;20198;-64
2022/05/24 02:56:08;;;;;;;0.50;0.50;;;12.60;99.90;12.00;100010.00;;;;5031986;28;20178;-64
2022/05/24 02:58:34;;;;;;;0.47;0.47;;;12.60;99.90;12.00;100011.00;;;;5048239;28;20214;-65
2022/05/24 03:01:00;;;;;;;0.87;0.87;;;12.60;99.90;12.30;100002.00;;;;5031877;28;20179;-65
2022/05/24 03:03:26;;;;;;;0.93;0.60;;;12.60;99.90;11.80;100002.00;;;;5032933;28;20245;-64
2022/05/24 03:05:52;;;;;;;1.17;1.13;;;12.50;99.90;11.90;99964.00;;;;5032879;28;20196;-64
2022/05/24 03:11:02;;;;;;;0.30;0.30;;;12.40;99.90;11.90;100038.00;;;;5032971;28;20189;-65
2022/05/24 03:16:15;;;;;;;0.30;0.30;;;12.50;99.90;12.60;100003.00;;;;5032945;28;20205;-65
2022/05/24 03:18:42;;;;;;;0.60;0.60;;;12.80;99.90;12.50;100055.00;;;;5034362;28;20658;-65
2022/05/24 03:21:09;;;;;;;0.40;0.40;;;12.80;99.90;12.80;100064.00;;;;5036772;28;20575;-65
2022/05/24 03:23:35;;;;;;;0.40;0.40;;;12.90;99.90;12.80;100028.00;;;;5036525;28;20210;-66
2022/05/24 03:26:02;;;;;;;0.30;0.30;;;13.00;99.90;12.30;100054.00;;;;5052081;28;20179;-65
2022/05/24 03:28:28;;;;;;;0.37;0.37;;;12.80;99.90;12.90;100062.00;;;;5036166;28;20172;-65
2022/05/24 03:30:54;;;;;;;0.40;0.40;;;12.90;99.90;12.30;100042.00;;;;5036312;28;20230;-65
2022/05/24 03:33:22;;;;;;;0.30;0.30;;;12.80;99.90;12.20;100044.00;;;;5051482;28;20229;-65
2022/05/24 03:35:48;;;;;;;0.30;0.30;;;12.80;99.90;12.30;100053.00;;;;5036304;28;20194;-64
2022/05/24 03:38:14;;;;;;;0.50;0.50;;;12.70;99.90;12.60;100046.00;;;;5036263;28;20180;-65
2022/05/24 03:40:39;;;;;;;0.30;0.30;;;12.80;99.90;12.30;100045.00;;;;5051915;28;20264;-64
2022/05/24 03:43:12;;;;;;;0.40;0.40;;;12.80;99.90;12.30;100045.00;;;;5035878;28;20298;-65
2022/05/24 03:45:38;;;;;;;0.30;0.30;;;12.80;99.90;12.10;100040.00;;;;5038293;28;20236;-65
2022/05/24 03:48:04;;;;;;;1.00;0.93;;;12.70;99.90;12.20;100043.00;;;;5016519;28;20176;-65
2022/05/24 03:50:30;;;;;;;0.50;0.50;;;12.60;99.90;12.20;100018.00;;;;5016458;28;20180;-65
2022/05/24 03:52:56;;;;;;;0.30;0.30;;;12.60;99.90;12.00;100053.00;;;;5015113;28;20563;-64
2022/05/24 03:55:22;;;;;;;5.13;1.53;;;12.50;99.90;12.00;100055.00;;;;5016156;28;20639;-64
2022/05/24 03:58:00;;;;;;;1.83;1.33;;;12.50;99.90;11.90;100061.00;;;;5016053;28;20194;-65
2022/05/24 04:00:33;;;;;;;0.30;0.30;;;12.40;99.90;11.90;100057.00;;;;5016088;28;20191;-65
2022/05/24 04:03:00;;;;;;;0.60;0.60;;;12.40;99.90;12.20;100051.00;;;;5016025;28;20238;-65
2022/05/24 04:05:27;;;;;;;0.30;0.30;;;12.50;99.90;12.20;100024.00;;;;5014618;28;20219;-65
2022/05/24 04:07:53;;;;;;;0.60;0.40;;;12.40;99.90;11.90;100060.00;;;;5015938;28;20546;-64
2022/05/24 04:10:19;;;;;;;0.30;0.30;;;12.40;99.90;12.30;100057.00;;;;5014601;28;20264;-65
2022/05/24 04:12:46;;;;;;;0.50;0.50;;;12.40;99.90;12.70;100056.00;;;;5014396;28;20242;-65
2022/05/24 04:15:13;;;;;;;2.63;0.90;;;12.70;99.90;12.10;100049.00;;;;5015907;28;20179;-65
2022/05/24 04:17:39;;;;;;;0.40;0.40;;;12.70;99.90;11.80;100054.00;;;;5014718;28;20250;-64
2022/05/24 04:20:06;;;;;;;4.10;0.80;;;12.40;99.90;11.60;100052.00;;;;5015532;28;20569;-64
2022/05/24 04:22:33;;;;;;;0.60;0.60;;;12.30;99.90;11.80;100016.00;;;;5015669;28;20529;-65
2022/05/24 04:25:00;;;;;;;0.30;0.30;;;12.30;99.90;11.50;100074.00;;;;5014758;28;20215;-64
2022/05/24 04:27:25;;;;;;;0.30;0.30;;;12.20;99.90;11.80;100074.00;;;;5015263;28;20185;-65
2022/05/24 04:29:53;;;;;;;0.30;0.30;;;12.30;99.90;11.80;100085.00;;;;5015552;28;20632;-65
2022/05/24 04:32:20;;;;;;;0.30;0.30;;;12.30;99.90;11.70;100086.00;;;;5014228;28;20211;-64
2022/05/24 04:34:46;;;;;;;2.67;0.70;;;12.30;99.90;11.70;100059.00;;;;5015427;28;20237;-64
2022/05/24 04:37:12;;;;;;;0.30;0.30;;;12.20;99.90;12.00;100058.00;;;;5015816;28;20630;-64
2022/05/24 04:39:38;;;;;;;0.30;0.30;;;12.30;99.90;12.10;100065.00;;;;5014077;28;20171;-65
2022/05/24 04:42:24;;;;;;;0.40;0.40;;;12.50;99.90;11.90;100096.00;;;;5013980;28;20176;-64
2022/05/24 04:45:03;;;;;;;0.40;0.40;;;12.40;99.90;11.70;100094.00;;;;5014369;28;20179;-64
2022/05/24 04:47:31;;;;;;;0.30;0.30;;;12.30;99.90;12.10;100091.00;;;;5014438;28;20267;-65
2022/05/24 04:50:00;;;;;;;0.30;0.30;;;12.40;99.90;11.80;100092.00;;;;5015211;28;20606;-65
2022/05/24 04:52:31;;;;;;;0.30;0.30;;;12.40;99.90;12.10;100092.00;;;;5013866;28;20195;-64
2022/05/24 04:54:57;;;;;;;0.30;0.30;;;12.50;99.90;13.00;100066.00;;;;5014940;28;20174;-65
2022/05/24 04:57:24;;;;;;;0.30;0.30;;;12.90;99.90;14.20;100103.00;;;;5014137;28;20180;-65
2022/05/24 04:59:51;;;;;;;0.27;0.27;;;13.90;99.90;14.90;100111.00;;;;5013815;28;20202;-65
2022/05/24 05:02:18;;;;;;;0.20;0.20;;;14.70;99.90;15.30;100101.00;;;;5013666;28;20180;-65
2022/05/24 05:04:45;;;;;;;0.30;0.30;;;15.30;99.90;15.60;100084.00;;;;5013721;28;20221;-65
2022/05/24 05:07:11;;;;;;;0.20;0.20;;;15.90;99.90;14.30;100056.00;;;;5013789;28;20531;-65
2022/05/24 05:09:38;;;;;;;12.60;1.33;;;15.10;99.90;13.30;100099.00;;;;5013654;28;20183;-65
2022/05/24 05:12:07;;;;;;;0.20;0.20;;;14.60;99.90;15.40;100103.00;;;;5013437;28;20210;-65
2022/05/24 05:14:34;;;;;;;0.20;0.20;;;15.30;99.90;15.10;100103.00;;;;5014799;28;20189;-65
2022/05/24 05:17:01;;;;;;;0.20;0.20;;;15.70;99.90;16.60;100103.00;;;;5014748;28;20186;-65
2022/05/24 05:19:27;;;;;;;0.50;0.50;;;16.50;99.90;17.00;100101.00;;;;5013336;28;20268;-66
2022/05/24 05:21:54;;;;;;;0.67;0.37;;;17.40;99.90;16.80;100092.00;;;;5013661;28;20177;-65
2022/05/24 05:24:20;;;;;;;0.40;0.40;;;17.20;99.90;16.50;100094.00;;;;5013016;28;20161;-65
2022/05/24 05:26:46;;;;;;;0.10;0.10;;;17.10;99.90;15.90;100098.00;;;;5013324;28;20188;-65
2022/05/24 05:29:12;;;;;;;0.13;0.13;;;16.50;99.90;15.30;100061.00;;;;5014679;28;20180;-65
2022/05/24 05:31:37;;;;;;;0.30;0.30;;;16.20;99.90;13.90;100098.00;;;;5014166;28;20675;-65
2022/05/24 05:34:04;;;;;;;0.20;0.20;;;15.20;99.90;15.70;100060.00;;;;5012949;28;20185;-65
2022/05/24 05:36:32;;;;;;;0.10;0.10;;;15.70;99.90;16.90;100108.00;;;;5014249;28;20197;-66
2022/05/24 05:38:58;;;;;;;1.47;0.67;;;16.60;99.90;14.50;100099.00;;;;5013983;28;20197;-63
2022/05/24 05:41:28;;;;;;;0.10;0.10;;;15.70;99.90;16.00;100117.00;;;;5012455;28;20237;-66
2022/05/24 05:43:59;;;;;;;2.13;2.03;;;15.90;99.90;15.60;100121.00;;;;5013035;28;20679;-66
2022/05/24 05:46:26;;;;;;;3.50;1.17;;;16.00;99.90;16.20;100119.00;;;;5014212;28;20191;-66
2022/05/24 05:48:52;;;;;;;0.60;0.40;;;16.70;99.90;15.10;100118.00;;;;5014558;28;20185;-66
2022/05/24 05:51:19;;;;;;;0.13;0.13;;;16.20;99.90;16.10;100132.00;;;;5012822;28;20249;-66
2022/05/24 05:53:46;;;;;;;1.60;0.30;;;16.40;99.90;15.40;100125.00;;;;5014222;28;20183;-66
2022/05/24 05:56:21;;;;;;;0.10;0.10;;;16.10;99.90;16.20;100144.00;;;;5012700;28;20262;-66
2022/05/24 05:58:48;;;;;;;0.13;0.13;;;16.40;99.90;14.40;100132.00;;;;5012909;28;20176;-66
2022/05/24 06:01:21;;;;;;;1.30;1.20;;;15.70;99.90;14.70;100110.00;;;;5012534;28;20186;-64
2022/05/24 06:03:47;;;;;;;0.77;0.77;;;15.30;99.90;14.50;100145.00;;;;5013197;28;20180;-64
2022/05/24 06:06:23;;;;;;;0.30;0.30;;;15.00;99.90;15.90;100162.00;;;;5013813;28;20173;-65
2022/05/24 06:08:50;;;;;;;0.47;0.47;;;15.60;99.90;14.30;100157.00;;;;5013719;28;20206;-64
2022/05/24 06:11:16;;;;;;;0.40;0.40;;;15.20;99.90;14.20;100168.00;;;;5012376;28;20171;-64
2022/05/24 06:13:42;;;;;;;0.80;0.80;;;14.90;99.90;13.90;100176.00;;;;5013669;28;20266;-64
2022/05/24 06:16:10;;;;;;;0.53;0.43;;;14.60;99.90;14.50;100182.00;;;;5012535;28;20278;-64
2022/05/24 06:18:37;;;;;;;0.30;0.30;;;14.80;99.90;13.10;100176.00;;;;5013823;28;20167;-64
2022/05/24 06:21:04;;;;;;;1.70;0.73;;;14.20;99.90;13.80;100172.00;;;;5013373;28;20188;-65
2022/05/24 06:23:29;;;;;;;0.30;0.30;;;14.20;99.90;13.90;100189.00;;;;5013449;28;20636;-66
2022/05/24 06:25:55;;;;;;;0.20;0.20;;;14.50;99.90;13.90;100189.00;;;;5013454;28;20175;-65
2022/05/24 06:28:21;;;;;;;0.53;0.53;;;14.50;99.90;13.20;100181.00;;;;5013500;28;20180;-65
2022/05/24 06:30:47;;;;;;;0.80;0.80;;;14.00;99.90;13.40;100180.00;;;;5013455;28;20178;-63
2022/05/24 06:33:13;;;;;;;0.60;0.60;;;13.90;99.90;13.10;100181.00;;;;5013342;28;20249;-65
2022/05/24 06:35:40;;;;;;;0.30;0.30;;;13.80;99.90;13.20;100158.00;;;;5013609;28;20205;-65
2022/05/24 06:38:07;;;;;;;0.33;0.33;;;13.90;99.90;14.30;100193.00;;;;5013079;28;20175;-65
2022/05/24 06:40:34;;;;;;;2.47;0.87;;;14.50;99.90;14.50;100185.00;;;;5013807;28;20208;-65
2022/05/24 06:43:01;;;;;;;0.97;0.80;;;15.20;99.90;13.70;100182.00;;;;5013260;28;20682;-65
2022/05/24 06:45:26;;;;;;;0.70;0.70;;;14.70;99.90;13.50;100192.00;;;;5013576;28;20186;-65
2022/05/24 06:47:52;;;;;;;0.87;0.87;;;14.30;99.90;14.10;100163.00;;;;5013338;28;20179;-65
2022/05/24 06:50:18;;;;;;;0.87;0.80;;;14.60;99.90;13.50;100190.00;;;;5012420;28;20186;-63
2022/05/24 06:52:44;;;;;;;0.70;0.60;;;14.40;99.90;13.40;100192.00;;;;5013033;28;20208;-64
2022/05/24 06:55:11;;;;;;;1.33;0.87;;;14.40;99.90;13.50;100197.00;;;;5017394;28;20277;-64
2022/05/24 06:57:37;;;;;;;0.83;0.83;;;14.30;99.90;13.30;100176.00;;;;5016176;28;20772;-64
2022/05/24 07:03:04;;;;;;;3.73;1.33;;;14.40;99.90;14.10;100166.00;;;;5016894;28;20253;-64
2022/05/24 07:05:30;;;;;;;1.07;0.50;;;14.90;99.90;13.70;100201.00;;;;5015833;28;20570;-64
2022/05/24 07:08:01;;;;;;;0.33;0.33;;;14.80;99.90;15.10;100167.00;;;;5015697;28;20616;-64
2022/05/24 07:10:29;;;;;;;1.13;0.83;;;15.50;99.90;14.60;100164.00;;;;5016026;28;20270;-64
2022/05/24 07:13:19;;;;;;;1.70;0.87;;;15.50;99.90;14.10;100199.00;;;;5015768;28;20203;-64
2022/05/24 07:15:46;;;;;;;1.70;0.90;;;15.00;99.90;14.10;100200.00;;;;5026787;28;20359;-64
2022/05/24 07:18:12;;;;;;;1.67;0.97;;;14.90;99.90;13.60;100199.00;;;;5015620;28;20634;-64
2022/05/24 07:20:38;;;;;;;0.53;0.53;;;14.40;99.90;13.70;100165.00;;;;5015298;28;20183;-64
2022/05/24 07:23:14;;;;;;;0.50;0.50;;;14.50;99.90;13.90;100211.00;;;;5016963;28;20179;-64
2022/05/24 07:25:41;;;;;;;0.50;0.50;;;14.70;99.90;13.50;100206.00;;;;5016922;28;20176;-64
2022/05/24 07:28:10;;;;;;;0.57;0.57;;;14.60;99.90;14.90;100210.00;;;;5015574;28;20229;-64
2022/05/24 07:30:36;;;;;;;0.63;0.63;;;15.20;99.90;14.50;100177.00;;;;5015349;28;20179;-64
2022/05/24 07:33:02;;;;;;;0.87;0.87;;;15.40;99.90;15.90;100202.00;;;;5015146;28;20261;-64
2022/05/24 07:35:28;;;;;;;0.97;0.97;;;16.20;99.90;15.30;100204.00;;;;5016622;28;20186;-64
2022/05/24 07:37:54;;;;;;;0.40;0.40;;;16.30;99.90;14.60;100225.00;;;;5016609;28;20271;-65
2022/05/24 07:45:56;;;;;;;0.80;0.40;;;15.80;99.90;15.70;100218.00;;;;5015636;28;20222;-64
2022/05/24 07:48:23;;;;;;;1.83;1.10;;;16.20;99.90;15.50;100267.00;;;;5015205;28;20269;-64
2022/05/24 07:50:50;;;;;;;1.27;1.17;;;16.40;99.90;15.50;100245.00;;;;4998441;28;20230;-64
2022/05/24 07:53:17;;;;;;;0.37;0.20;;;16.10;99.90;14.70;100263.00;;;;5016100;28;20678;-64
2022/05/24 07:55:44;;;;;;;0.70;0.70;;;15.70;99.90;14.60;100276.00;;;;5014988;28;20191;-65
2022/05/24 07:58:11;;;;;;;0.40;0.40;;;15.30;99.90;14.10;100244.00;;;;5016021;28;20538;-64
2022/05/24 08:00:38;;;;;;;1.33;1.10;;;15.00;99.90;14.80;100275.00;;;;5014958;28;20531;-64
2022/05/24 08:03:06;;;;;;;0.30;0.30;;;15.30;99.90;15.20;100247.00;;;;5015842;28;20183;-65
2022/05/24 08:05:34;;;;;;;1.17;1.07;;;15.50;99.90;14.80;100285.00;;;;5016042;28;20185;-64
2022/05/24 08:08:00;;;;;;;0.60;0.60;;;15.50;99.90;15.40;100303.00;;;;5014688;28;20186;-64
2022/05/24 08:10:28;;;;;;;0.53;0.53;;;16.00;99.90;14.80;100290.00;;;;5014668;28;20236;-64
2022/05/24 08:12:56;;;;;;;0.30;0.30;;;15.70;99.90;15.00;100264.00;;;;5014865;28;20216;-64
2022/05/24 08:15:23;;;;;;;2.67;1.27;;;15.90;99.90;14.40;100306.00;;;;5015886;28;20276;-64
2022/05/24 08:17:50;;;;;;;1.60;0.97;;;15.50;99.90;16.00;100314.00;;;;5015815;28;20183;-64
2022/05/24 08:20:16;;;;;;;1.33;1.23;;;16.10;99.90;15.80;100322.00;;;;5015669;28;20175;-64
2022/05/24 08:22:43;;;;;;;1.03;0.80;;;16.60;99.90;17.00;100343.00;;;;5015531;28;20242;-66
2022/05/24 08:25:11;;;;;;;0.57;0.57;;;17.20;99.90;15.70;100336.00;;;;5015988;28;20185;-64
2022/05/24 08:27:41;;;;;;;0.43;0.43;;;16.60;99.90;15.90;100303.00;;;;5015850;28;20180;-64
2022/05/24 08:30:10;;;;;;;1.70;0.80;;;16.40;99.90;16.70;100355.00;;;;5014534;28;20181;-64
2022/05/24 08:32:37;;;;;;;1.20;1.20;;;17.00;99.90;15.70;100353.00;;;;5015023;28;20214;-64
2022/05/24 08:35:05;;;;;;;0.60;0.57;;;16.60;99.90;16.20;100377.00;;;;5015466;28;20184;-64
2022/05/24 08:37:31;;;;;;;0.50;0.43;;;16.90;99.90;15.50;100365.00;;;;5014267;28;20267;-64
2022/05/24 08:39:59;;;;;;;0.70;0.70;;;16.40;99.90;16.00;100369.00;;;;5013979;28;20168;-64
2022/05/24 08:43:06;;;;;;;0.50;0.50;;;16.40;99.90;15.40;100369.00;;;;5015484;28;20188;-64
2022/05/24 08:48:39;;;;;;;0.47;0.47;;;16.70;99.90;17.50;100417.00;;;;5014272;28;20283;-65
2022/05/24 08:51:21;;;;;;;0.10;0.10;;;17.70;99.90;18.50;100451.00;;;;5015092;28;20174;-64
2022/05/24 08:53:50;;;;;;;0.45;0.32;;;18.50;99.90;18.40;100462.00;;;;5015131;28;20183;-64
2022/05/24 08:56:30;;;;;;;0.52;0.40;;;18.90;99.90;16.70;100444.00;;;;5014068;28;20203;-64
2022/05/24 08:59:06;;;;;;;0.40;0.40;;;17.90;99.90;16.30;100452.00;;;;5014006;28;20303;-64
2022/05/24 09:01:32;;;;;;;0.20;0.20;;;17.30;99.90;16.20;100399.00;;;;5013621;28;20188;-64
2022/05/24 09:04:05;;;;;;;0.40;0.40;;;16.80;99.90;17.00;100452.00;;;;5014800;28;20242;-64
2022/05/24 09:06:40;;;;;;;1.77;1.50;;;17.20;99.90;17.40;100473.00;;;;5014739;28;20175;-65
2022/05/24 09:09:12;;;;;;;0.77;0.30;;;17.60;99.90;16.50;100435.00;;;;5015031;28;20171;-65
2022/05/24 09:12:31;;;;;;;0.43;0.43;;;17.30;99.90;16.00;100429.00;;;;5014476;28;20214;-64
2022/05/24 09:15:27;;;;;;;0.97;0.57;;;16.30;99.90;16.00;100427.00;;;;5014428;28;20173;-64
2022/05/24 09:18:07;;;;;;;7.93;1.27;;;16.50;99.90;16.80;100452.00;;;;5013025;28;20192;-64
2022/05/24 09:20:39;;;;;;;0.20;0.20;;;17.10;99.90;16.70;100449.00;;;;5013329;28;20596;-64
2022/05/24 09:23:09;;;;;;;0.23;0.23;;;17.00;99.90;19.00;100497.00;;;;5013318;28;20227;-64
2022/05/24 09:25:35;;;;;;;0.13;0.13;;;18.30;99.90;17.40;100467.00;;;;5014934;28;20201;-65
2022/05/24 09:28:01;;;;;;;0.93;0.57;;;18.30;99.90;17.90;100458.00;;;;5014708;28;20179;-64
2022/05/24 09:30:29;;;;;;;1.35;0.55;;;18.10;99.90;18.70;100512.00;;;;5013071;28;20182;-64
2022/05/24 09:33:23;;;;;;;0.30;0.30;;;18.60;99.90;18.80;100522.00;;;;5014532;28;20223;-65
2022/05/24 09:35:54;;;;;;;2.92;0.55;;;18.80;99.90;17.90;100516.00;;;;5013013;28;20179;-65
2022/05/24 09:38:22;;;;;;;0.20;0.20;;;18.40;99.90;16.90;100463.00;;;;5013222;28;20177;-65
2022/05/24 09:40:55;;;;;;;5.60;1.13;;;17.60;99.90;17.20;100485.00;;;;5014306;28;20594;-64
2022/05/24 09:43:33;;;;;;;0.37;0.37;;;17.40;99.90;16.30;100439.00;;;;5013465;28;20203;-64
2022/05/24 09:46:24;;;;;;;0.47;0.47;;;16.90;99.90;17.50;100440.00;;;;5013863;28;20242;-65
2022/05/24 09:49:14;;;;;;;0.10;0.10;;;17.10;99.90;18.00;100500.00;;;;5013075;28;20176;-65
2022/05/24 09:51:42;;;;;;;3.03;0.87;;;17.90;99.90;16.50;100476.00;;;;5012784;28;20217;-65
2022/05/24 09:54:20;;;;;;;5.73;0.90;;;17.10;99.90;16.70;100472.00;;;;5014127;28;20585;-65
2022/05/24 09:57:26;;;;;;;0.20;0.20;;;17.10;99.90;17.20;100480.00;;;;5012709;28;20189;-65
2022/05/24 10:00:20;;;;;;;1.50;0.63;;;17.20;99.90;18.10;100518.00;;;;5002941;28;20192;-64
2022/05/24 10:02:47;;;;;;;0.60;0.50;;;18.00;99.90;18.30;100514.00;;;;5012590;28;20189;-65
2022/05/24 10:05:27;;;;;;;1.13;0.50;;;18.40;99.90;17.20;100518.00;;;;4996536;28;20184;-65
2022/05/24 10:07:59;;;;;;;1.23;0.80;;;17.90;99.90;17.40;100512.00;;;;5013023;28;20501;-64
2022/05/24 10:10:36;;;;;;;0.10;0.10;;;17.60;99.90;17.00;100516.00;;;;5013889;28;20176;-64
2022/05/24 10:13:33;;;;;;;6.17;0.60;;;17.30;99.90;16.70;100505.00;;;;5012792;28;20655;-64
2022/05/24 10:16:14;;;;;;;0.97;0.73;;;17.20;99.90;17.30;100530.00;;;;5012879;28;20178;-64
2022/05/24 10:19:13;;;;;;;0.90;0.90;;;17.40;99.90;17.20;100503.00;;;;5012610;28;20185;-65
2022/05/24 10:40:34;;;;;;;1.30;1.20;;;16.20;99.90;16.10;100430.00;;;;5049489;28;20197;-66
2022/05/24 10:43:08;;;;;;;0.40;0.40;;;16.40;99.90;16.30;100444.00;;;;5049084;28;20263;-66
2022/05/24 10:46:02;;;;;;;0.20;0.20;;;16.70;99.90;16.50;100454.00;;;;5050628;28;20178;-66
2022/05/24 10:49:05;;;;;;;0.30;0.30;;;16.80;99.90;16.50;100448.00;;;;5049184;28;20214;-67
2022/05/24 10:51:48;;;;;;;3.73;0.97;;;16.80;99.90;14.50;100419.00;;;;5050031;28;20565;-65
2022/05/24 10:54:32;;;;;;;2.10;0.77;;;15.70;99.90;14.40;100461.00;;;;5049255;28;20174;-67
2022/05/24 10:57:10;;;;;;;0.20;0.20;;;15.00;99.90;14.40;100469.00;;;;5048584;28;20566;-64
2022/05/24 11:00:03;;;;;;;2.53;0.73;;;14.90;99.90;14.30;100476.00;;;;5049235;28;20182;-64
2022/05/24 11:02:55;;;;;;;2.43;0.63;;;14.90;99.90;14.00;100484.00;;;;5048728;28;20189;-64
2022/05/24 11:05:36;;;;;;;3.20;1.00;;;14.70;99.90;14.40;100498.00;;;;5049201;28;20181;-65
2022/05/24 11:08:32;;;;;;;1.37;0.47;;;14.80;99.90;13.80;100523.00;;;;5048859;28;20189;-65
2022/05/24 11:11:21;;;;;;;0.50;0.50;;;14.70;99.90;13.60;100503.00;;;;5049715;28;20538;-66
2022/05/24 11:13:57;;;;;;;0.60;0.60;;;14.10;99.90;13.70;100503.00;;;;5049494;28;20209;-63
2022/05/24 11:16:42;;;;;;;0.63;0.63;;;14.10;99.90;14.10;100531.00;;;;5050162;28;20164;-65
2022/05/24 11:19:35;;;;;;;0.50;0.50;;;14.20;99.90;13.70;100532.00;;;;5048549;28;20180;-63
2022/05/24 11:22:40;;;;;;;0.30;0.30;;;14.40;99.90;13.90;100529.00;;;;5049430;28;20180;-63
2022/05/24 11:25:21;;;;;;;0.63;0.63;;;14.20;99.90;14.80;100523.00;;;;5048562;28;20271;-63
2022/05/24 11:28:17;;;;;;;0.37;0.37;;;14.70;99.90;15.90;100501.00;;;;5048282;28;20237;-64
2022/05/24 11:30:43;;;;;;;0.40;0.40;;;16.60;99.90;15.70;100516.00;;;;5049530;28;20176;-64
2022/05/24 11:33:14;;;;;;;0.30;0.30;;;16.60;99.90;18.40;100501.00;;;;5049545;28;20603;-65
2022/05/24 11:35:50;;;;;;;0.20;0.20;;;18.30;99.90;20.20;100509.00;;;;5031867;28;20189;-65
2022/05/24 11:38:38;;;;;;;0.20;0.20;;;20.10;99.90;20.80;100494.00;;;;5049435;28;20189;-65
2022/05/24 11:41:12;;;;;;;0.20;0.20;;;21.20;99.90;22.60;100578.00;;;;5048092;28;20653;-65
2022/05/24 11:43:43;;;;;;;0.20;0.20;;;22.50;99.90;24.40;100613.00;;;;5041229;28;20175;-66
2022/05/24 11:46:46;;;;;;;0.10;0.10;;;23.90;99.90;18.80;100607.00;;;;5036038;28;20574;-65
2022/05/24 11:49:24;;;;;;;0.30;0.30;;;21.80;99.90;18.70;100532.00;;;;5030057;28;20190;-65
2022/05/24 11:51:53;;;;;;;0.60;0.60;;;19.80;99.90;17.90;100533.00;;;;5036008;28;20210;-67